createdAt,value
2019-04-14T00:00:33.892Z,3.20
2019-04-14T00:03:04.450Z,3.30
2019-04-14T00:05:34.466Z,3.20
2019-04-14T00:08:04.529Z,3.20
2019-04-14T00:10:33.426Z,3.20
2019-04-14T00:13:02.506Z,3.30
2019-04-14T00:15:38.852Z,3.20
2019-04-14T00:18:01.255Z,3.20
2019-04-14T00:20:29.706Z,3.30
2019-04-14T00:22:58.253Z,3.30
2019-04-14T00:25:26.784Z,3.20
2019-04-14T00:27:56.244Z,3.20
2019-04-14T00:30:25.229Z,3.10
2019-04-14T00:32:59.428Z,3.20
2019-04-14T00:35:44.932Z,3.20
2019-04-14T00:38:24.271Z,3.20
2019-04-14T00:41:02.970Z,3.20
2019-04-14T00:43:33.228Z,3.00
2019-04-14T00:46:04.362Z,3.00
2019-04-14T00:48:34.094Z,2.90
2019-04-14T00:51:02.840Z,2.70
2019-04-14T00:53:31.732Z,2.70
2019-04-14T00:56:00.227Z,2.60
2019-04-14T00:58:29.985Z,2.50
2019-04-14T01:01:00.407Z,2.40
2019-04-14T01:03:28.991Z,2.40
2019-04-14T01:05:57.534Z,2.40
2019-04-14T01:08:26.795Z,2.50
2019-04-14T01:10:56.234Z,2.60
2019-04-14T01:13:24.860Z,2.50
2019-04-14T01:16:00.544Z,2.70
2019-04-14T01:18:23.539Z,2.70
2019-04-14T01:20:53.527Z,2.80
2019-04-14T01:23:22.222Z,2.70
2019-04-14T01:25:50.666Z,2.60
2019-04-14T01:28:20.150Z,2.50
2019-04-14T01:30:48.698Z,2.30
2019-04-14T01:33:18.249Z,2.20
2019-04-14T01:35:46.976Z,2.10
2019-04-14T01:38:15.483Z,2.10
2019-04-14T01:40:44.546Z,2.10
2019-04-14T01:43:14.503Z,2.10
2019-04-14T01:45:43.210Z,2.20
2019-04-14T01:48:12.691Z,2.30
2019-04-14T01:51:00.472Z,2.40
2019-04-14T01:53:31.499Z,2.40
2019-04-14T01:56:25.981Z,2.40
2019-04-14T01:58:56.096Z,2.40
2019-04-14T02:01:26.220Z,2.40
2019-04-14T02:03:54.739Z,2.50
2019-04-14T02:06:24.453Z,2.40
2019-04-14T02:08:53.113Z,2.40
2019-04-14T02:11:22.591Z,2.40
2019-04-14T02:13:51.209Z,2.40
2019-04-14T02:16:30.282Z,2.30
2019-04-14T02:18:52.236Z,2.30
2019-04-14T02:21:20.070Z,2.30
2019-04-14T02:23:49.696Z,2.30
2019-04-14T02:26:19.669Z,2.30
2019-04-14T02:28:48.335Z,2.20
2019-04-14T02:31:39.419Z,2.10
2019-04-14T02:34:15.700Z,2.20
2019-04-14T02:36:47.210Z,2.10
2019-04-14T02:39:22.385Z,2.10
2019-04-14T02:42:04.856Z,2.10
2019-04-14T02:44:23.570Z,1.90
2019-04-14T02:49:14.339Z,1.80
2019-04-14T02:51:42.506Z,2.00
2019-04-14T02:54:22.842Z,1.90
2019-04-14T02:56:43.366Z,1.80
2019-04-14T02:59:13.284Z,1.70
2019-04-14T03:01:54.324Z,1.60
2019-04-14T03:04:18.817Z,1.50
2019-04-14T03:06:50.100Z,1.50
2019-04-14T03:09:39.805Z,1.40
2019-04-14T03:11:46.246Z,1.40
2019-04-14T03:14:15.645Z,1.40
2019-04-14T03:19:44.141Z,1.50
2019-04-14T03:22:49.768Z,1.40
2019-04-14T03:25:11.501Z,1.40
2019-04-14T03:33:21.176Z,1.30
2019-04-14T03:35:50.896Z,1.20
2019-04-14T03:40:28.402Z,0.90
2019-04-14T03:43:04.019Z,0.90
2019-04-14T03:45:35.747Z,1.00
2019-04-14T03:48:31.836Z,1.00
2019-04-14T03:50:29.211Z,1.00
2019-04-14T03:55:16.365Z,0.90
2019-04-14T03:57:34.540Z,0.90
2019-04-14T04:00:05.312Z,0.90
2019-04-14T04:02:34.193Z,0.80
2019-04-14T04:05:04.137Z,0.80
2019-04-14T04:07:34.106Z,0.80
2019-04-14T04:10:05.095Z,0.80
2019-04-14T04:12:33.765Z,0.70
2019-04-14T04:15:02.523Z,0.70
2019-04-14T04:17:34.036Z,0.80
2019-04-14T04:20:17.431Z,1.00
2019-04-14T04:23:05.209Z,1.00
2019-04-14T04:28:16.769Z,1.20
2019-04-14T04:30:55.855Z,1.30
2019-04-14T04:33:32.714Z,1.30
2019-04-14T04:36:20.756Z,1.30
2019-04-14T04:39:08.634Z,1.60
2019-04-14T04:41:37.176Z,1.70
2019-04-14T04:44:05.624Z,1.80
2019-04-14T04:46:35.078Z,1.90
2019-04-14T04:49:12.767Z,2.00
2019-04-14T04:51:34.184Z,2.00
2019-04-14T04:54:03.854Z,2.00
2019-04-14T04:56:34.073Z,2.00
2019-04-14T04:59:03.309Z,2.10
2019-04-14T05:01:31.855Z,2.10
2019-04-14T05:04:00.373Z,2.20
2019-04-14T05:07:01.625Z,2.20
2019-04-14T05:09:33.806Z,2.20
2019-04-14T05:12:13.337Z,2.30
2019-04-14T05:15:03.358Z,2.50
2019-04-14T05:20:27.285Z,2.60
2019-04-14T05:22:55.786Z,2.70
2019-04-14T05:25:25.430Z,2.80
2019-04-14T05:27:54.085Z,2.90
2019-04-14T05:30:22.528Z,3.10
2019-04-14T05:32:52.164Z,3.20
2019-04-14T05:35:20.811Z,3.30
2019-04-14T05:37:49.262Z,3.50
2019-04-14T05:40:18.798Z,3.70
2019-04-14T05:42:47.448Z,3.80
2019-04-14T05:45:15.934Z,3.90
2019-04-14T05:47:45.691Z,4.10
2019-04-14T05:50:15.806Z,4.10
2019-04-14T05:52:44.838Z,4.10
2019-04-14T05:55:13.529Z,4.20
2019-04-14T05:57:42.172Z,4.30
2019-04-14T06:00:12.841Z,4.30
2019-04-14T06:02:42.004Z,4.40
2019-04-14T06:05:11.781Z,4.40
2019-04-14T06:07:41.063Z,4.40
2019-04-14T06:10:09.584Z,4.40
2019-04-14T06:12:38.139Z,4.40
2019-04-14T06:15:06.962Z,4.30
2019-04-14T06:17:35.414Z,4.30
2019-04-14T06:20:05.130Z,4.20
2019-04-14T06:22:33.571Z,4.10
2019-04-14T06:25:02.034Z,4.00
2019-04-14T06:27:30.581Z,3.90
2019-04-14T06:30:00.674Z,3.90
2019-04-14T06:32:30.780Z,3.90
2019-04-14T06:35:12.669Z,3.90
2019-04-14T06:37:48.335Z,3.90
2019-04-14T06:40:16.802Z,4.00
2019-04-14T06:42:45.294Z,4.00
2019-04-14T06:45:14.382Z,4.10
2019-04-14T06:47:42.925Z,4.20
2019-04-14T06:50:11.441Z,4.20
2019-04-14T06:52:39.923Z,4.20
2019-04-14T06:55:08.584Z,4.20
2019-04-14T06:57:37.127Z,4.30
2019-04-14T07:00:06.111Z,4.50
2019-04-14T07:02:34.686Z,4.40
2019-04-14T07:05:03.168Z,4.40
2019-04-14T07:07:31.645Z,4.70
2019-04-14T07:10:00.116Z,5.10
2019-04-14T07:12:28.553Z,5.60
2019-04-14T07:14:57.026Z,6.60
2019-04-14T07:17:25.481Z,6.60
2019-04-14T07:20:01.909Z,7.00
2019-04-14T07:22:24.195Z,7.30
2019-04-14T07:24:52.710Z,6.90
2019-04-14T07:27:21.231Z,6.90
2019-04-14T07:29:51.320Z,6.90
2019-04-14T07:32:33.508Z,6.90
2019-04-14T07:35:03.635Z,6.70
2019-04-14T07:37:51.736Z,6.80
2019-04-14T07:40:24.631Z,7.00
2019-04-14T07:43:07.606Z,7.10
2019-04-14T07:45:55.837Z,7.00
2019-04-14T07:48:28.490Z,7.10
2019-04-14T07:51:17.038Z,7.10
2019-04-14T07:53:47.260Z,7.40
2019-04-14T07:56:33.953Z,7.20
2019-04-14T07:59:06.970Z,7.10
2019-04-14T08:01:43.284Z,7.00
2019-04-14T08:04:19.574Z,6.80
2019-04-14T08:06:49.676Z,7.20
2019-04-14T08:09:18.275Z,7.30
2019-04-14T08:11:46.765Z,7.50
2019-04-14T08:14:15.482Z,7.90
2019-04-14T08:16:44.045Z,8.40
2019-04-14T08:19:12.554Z,8.60
2019-04-14T08:21:41.177Z,8.90
2019-04-14T08:24:09.624Z,9.40
2019-04-14T08:26:38.080Z,9.40
2019-04-14T08:29:06.562Z,9.90
2019-04-14T08:31:35.010Z,10.70
2019-04-14T08:34:03.558Z,11.20
2019-04-14T08:36:33.333Z,11.10
2019-04-14T08:39:21.294Z,11.40
2019-04-14T08:41:54.065Z,12.30
2019-04-14T08:44:30.375Z,12.40
2019-04-14T08:47:09.519Z,12.10
2019-04-14T08:49:42.574Z,11.80
2019-04-14T08:52:24.034Z,12.30
2019-04-14T08:54:55.990Z,12.90
2019-04-14T08:57:37.594Z,14.00
2019-04-14T09:00:08.898Z,14.50
2019-04-14T09:02:55.891Z,14.60
2019-04-14T09:05:26.343Z,14.60
2019-04-14T09:07:56.487Z,14.60
2019-04-14T09:10:38.606Z,13.90
2019-04-14T09:13:07.492Z,13.60
2019-04-14T09:15:36.280Z,13.10
2019-04-14T09:18:04.898Z,13.30
2019-04-14T09:20:33.679Z,12.90
2019-04-14T09:23:02.163Z,13.30
2019-04-14T09:25:30.978Z,14.20
2019-04-14T09:27:59.419Z,14.70
2019-04-14T09:30:27.981Z,15.40
2019-04-14T09:32:56.419Z,15.70
2019-04-14T09:35:24.971Z,16.60
2019-04-14T09:37:53.420Z,16.00
2019-04-14T09:40:22.144Z,15.20
2019-04-14T09:42:50.948Z,15.30
2019-04-14T09:45:19.753Z,15.50
2019-04-14T09:47:48.249Z,15.90
2019-04-14T09:50:16.859Z,16.80
2019-04-14T09:52:45.636Z,17.60
2019-04-14T09:55:14.447Z,18.60
2019-04-14T09:57:43.280Z,17.90
2019-04-14T10:00:14.446Z,17.00
2019-04-14T10:02:43.201Z,15.90
2019-04-14T10:05:11.643Z,15.90
2019-04-14T10:07:40.508Z,16.20
2019-04-14T10:10:09.026Z,16.00
2019-04-14T10:12:38.007Z,15.60
2019-04-14T10:15:06.891Z,16.10
2019-04-14T10:17:35.427Z,15.90
2019-04-14T10:20:04.651Z,14.90
2019-04-14T10:22:34.407Z,14.30
2019-04-14T10:25:02.995Z,14.30
2019-04-14T10:27:31.460Z,14.10
2019-04-14T10:29:59.967Z,14.80
2019-04-14T10:32:28.724Z,15.40
2019-04-14T10:34:57.522Z,15.60
2019-04-14T10:37:26.322Z,15.10
2019-04-14T10:39:55.139Z,15.70
2019-04-14T10:42:23.679Z,15.80
2019-04-14T10:44:52.127Z,16.00
2019-04-14T10:47:20.647Z,16.40
2019-04-14T10:49:49.116Z,17.20
2019-04-14T10:52:17.913Z,18.00
2019-04-14T10:54:46.723Z,16.80
2019-04-14T10:57:15.231Z,15.70
2019-04-14T10:59:43.724Z,15.40
2019-04-14T11:02:12.176Z,15.00
2019-04-14T11:04:40.631Z,14.60
2019-04-14T11:07:10.744Z,14.10
2019-04-14T11:09:39.523Z,14.10
2019-04-14T11:12:09.136Z,14.10
2019-04-14T11:14:37.949Z,14.60
2019-04-14T11:17:06.450Z,15.00
2019-04-14T11:19:34.926Z,15.50
2019-04-14T11:22:03.631Z,16.10
2019-04-14T11:24:32.432Z,16.80
2019-04-14T11:27:01.198Z,18.20
2019-04-14T11:29:30.014Z,18.40
2019-04-14T11:32:06.101Z,19.50
2019-04-14T11:34:36.524Z,19.00
2019-04-14T11:37:23.426Z,18.30
2019-04-14T11:39:51.967Z,17.50
2019-04-14T11:42:20.955Z,16.90
2019-04-14T11:44:49.962Z,17.20
2019-04-14T11:47:18.760Z,17.60
2019-04-14T11:49:47.577Z,18.00
2019-04-14T11:52:16.371Z,18.50
2019-04-14T11:54:45.373Z,18.50
2019-04-14T11:57:14.177Z,19.10
2019-04-14T11:59:47.055Z,18.90
2019-04-14T12:02:17.494Z,19.50
2019-04-14T12:04:47.649Z,20.40
2019-04-14T12:07:36.206Z,19.40
2019-04-14T12:10:07.936Z,18.50
2019-04-14T12:12:36.685Z,18.70
2019-04-14T12:15:07.702Z,18.30
2019-04-14T12:17:36.643Z,18.90
2019-04-14T12:20:06.929Z,19.40
2019-04-14T12:22:35.781Z,18.60
2019-04-14T12:25:05.639Z,16.80
2019-04-14T12:27:34.546Z,16.60
2019-04-14T12:30:06.417Z,17.00
2019-04-14T12:32:35.292Z,16.90
2019-04-14T12:35:04.491Z,17.10
2019-04-14T12:37:32.937Z,17.90
2019-04-14T12:40:02.781Z,17.90
2019-04-14T12:42:33.072Z,18.10
2019-04-14T12:45:05.862Z,17.80
2019-04-14T12:47:52.386Z,17.00
2019-04-14T12:50:28.743Z,16.00
2019-04-14T12:52:57.968Z,14.80
2019-04-14T12:55:26.978Z,14.80
2019-04-14T12:57:57.454Z,14.50
2019-04-14T13:00:27.681Z,14.30
2019-04-14T13:02:56.601Z,14.10
2019-04-14T13:05:25.111Z,14.50
2019-04-14T13:07:53.570Z,14.40
2019-04-14T13:10:22.342Z,14.40
2019-04-14T13:12:51.148Z,14.60
2019-04-14T13:15:19.939Z,14.70
2019-04-14T13:17:48.561Z,14.30
2019-04-14T13:20:17.288Z,14.50
2019-04-14T13:22:45.744Z,13.80
2019-04-14T13:25:14.532Z,13.80
2019-04-14T13:27:43.009Z,14.40
2019-04-14T13:30:13.719Z,15.10
2019-04-14T13:32:42.480Z,15.10
2019-04-14T13:35:11.044Z,15.10
2019-04-14T13:37:39.772Z,14.80
2019-04-14T13:40:08.916Z,14.50
2019-04-14T13:42:37.684Z,13.80
2019-04-14T13:45:06.771Z,13.10
2019-04-14T13:47:35.698Z,13.50
2019-04-14T13:50:07.213Z,14.10
2019-04-14T13:52:46.036Z,14.50
2019-04-14T13:55:06.604Z,14.90
2019-04-14T13:57:35.408Z,15.10
2019-04-14T14:00:06.651Z,14.90
2019-04-14T14:02:35.564Z,14.80
2019-04-14T14:05:05.191Z,14.60
2019-04-14T14:07:33.995Z,14.60
2019-04-14T14:10:02.535Z,14.70
2019-04-14T14:12:48.967Z,14.80
2019-04-14T14:15:19.056Z,14.70
2019-04-14T14:18:05.760Z,14.20
2019-04-14T14:20:52.044Z,13.80
2019-04-14T14:23:28.198Z,14.20
2019-04-14T14:26:01.540Z,14.90
2019-04-14T14:28:30.355Z,15.30
2019-04-14T14:31:00.075Z,15.00
2019-04-14T14:33:28.776Z,15.10
2019-04-14T14:35:57.587Z,15.40
2019-04-14T14:38:26.390Z,16.20
2019-04-14T14:40:56.417Z,16.10
2019-04-14T14:43:25.215Z,16.90
2019-04-14T14:45:58.736Z,17.80
2019-04-14T14:48:31.646Z,18.30
2019-04-14T14:51:05.670Z,17.90
2019-04-14T14:53:34.182Z,18.60
2019-04-14T14:56:02.700Z,19.40
2019-04-14T14:58:31.457Z,20.00
2019-04-14T15:01:00.255Z,19.50
2019-04-14T15:03:29.104Z,19.60
2019-04-14T15:05:57.577Z,19.00
2019-04-14T15:08:26.449Z,19.30
2019-04-14T15:10:54.958Z,20.00
2019-04-14T15:13:23.435Z,20.50
2019-04-14T15:15:51.901Z,20.60
2019-04-14T15:18:20.355Z,19.60
2019-04-14T15:20:49.227Z,18.80
2019-04-14T15:23:24.684Z,17.60
2019-04-14T15:25:48.206Z,15.60
2019-04-14T15:28:16.779Z,15.20
2019-04-14T15:30:45.225Z,14.20
2019-04-14T15:33:14.060Z,13.80
2019-04-14T15:35:42.960Z,13.50
2019-04-14T15:38:11.806Z,13.30
2019-04-14T15:40:40.659Z,12.50
2019-04-14T15:43:09.139Z,12.40
2019-04-14T15:45:37.597Z,12.40
2019-04-14T15:48:06.048Z,12.40
2019-04-14T15:50:34.531Z,13.30
2019-04-14T15:53:03.343Z,13.20
2019-04-14T15:55:32.143Z,14.60
2019-04-14T15:58:17.506Z,14.60
2019-04-14T16:00:47.873Z,15.70
2019-04-14T16:03:20.776Z,16.30
2019-04-14T16:05:53.844Z,16.50
2019-04-14T16:08:23.948Z,16.10
2019-04-14T16:10:54.454Z,15.90
2019-04-14T16:13:24.675Z,15.50
2019-04-14T16:16:07.007Z,14.50
2019-04-14T16:18:40.312Z,13.90
2019-04-14T16:21:09.527Z,13.90
2019-04-14T16:23:49.774Z,14.10
2019-04-14T16:26:24.986Z,14.80
2019-04-14T16:28:55.383Z,14.80
2019-04-14T16:31:37.251Z,15.00
2019-04-14T16:34:23.693Z,14.80
2019-04-14T16:36:53.146Z,14.60
2019-04-14T16:39:21.586Z,14.20
2019-04-14T16:41:50.254Z,14.20
2019-04-14T16:44:18.861Z,13.80
2019-04-14T16:46:47.651Z,13.60
2019-04-14T16:49:16.429Z,12.40
2019-04-14T16:51:50.040Z,12.40
2019-04-14T16:54:29.039Z,12.30
2019-04-14T16:57:11.200Z,11.70
2019-04-14T16:59:40.012Z,12.00
2019-04-14T17:02:10.995Z,11.90
2019-04-14T17:04:38.644Z,11.80
2019-04-14T17:07:07.085Z,11.90
2019-04-14T17:09:37.403Z,11.60
2019-04-14T17:12:06.568Z,11.60
2019-04-14T17:14:39.376Z,11.50
2019-04-14T17:17:18.612Z,11.20
2019-04-14T17:20:04.923Z,11.00
2019-04-14T17:22:43.817Z,10.50
2019-04-14T17:25:26.388Z,10.30
2019-04-14T17:27:59.146Z,10.30
2019-04-14T17:30:32.501Z,9.90
2019-04-14T17:33:08.737Z,9.80
2019-04-14T17:35:45.217Z,9.40
2019-04-14T17:38:20.835Z,9.10
2019-04-14T17:40:50.912Z,8.90
2019-04-14T17:43:36.739Z,8.80
2019-04-14T17:46:07.321Z,8.70
2019-04-14T17:48:37.499Z,8.60
2019-04-14T17:51:22.779Z,8.40
2019-04-14T17:54:07.746Z,8.20
2019-04-14T17:56:41.107Z,8.20
2019-04-14T17:59:14.004Z,8.00
2019-04-14T18:01:48.439Z,8.00
2019-04-14T18:04:18.612Z,8.00
2019-04-14T18:06:49.098Z,7.80
2019-04-14T18:09:25.392Z,7.60
2019-04-14T18:12:08.883Z,7.60
2019-04-14T18:14:39.376Z,7.50
2019-04-14T18:17:09.823Z,7.50
2019-04-14T18:19:49.137Z,7.40
2019-04-14T18:22:18.151Z,7.30
2019-04-14T18:24:46.578Z,7.20
2019-04-14T18:27:15.571Z,7.20
2019-04-14T18:29:48.795Z,7.10
2019-04-14T18:32:19.219Z,7.00
2019-04-14T18:34:49.330Z,6.90
2019-04-14T18:37:34.431Z,6.80
2019-04-14T18:40:20.507Z,6.90
2019-04-14T18:43:06.862Z,6.80
2019-04-14T18:45:36.985Z,6.80
2019-04-14T18:48:16.039Z,6.70
2019-04-14T18:51:04.255Z,6.70
2019-04-14T18:53:43.270Z,6.60
2019-04-14T18:56:13.776Z,6.60
2019-04-14T18:58:50.055Z,6.60
2019-04-14T19:01:20.170Z,6.60
2019-04-14T19:03:48.891Z,6.50
2019-04-14T19:06:17.342Z,6.40
2019-04-14T19:08:46.609Z,6.30
2019-04-14T19:11:16.678Z,6.30
2019-04-14T19:14:05.292Z,6.40
2019-04-14T19:16:39.923Z,6.40
2019-04-14T19:19:06.396Z,6.30
2019-04-14T19:21:35.199Z,6.30
2019-04-14T19:24:03.981Z,6.20
2019-04-14T19:26:32.553Z,6.10
2019-04-14T19:29:01.021Z,6.00
2019-04-14T19:31:30.088Z,5.90
2019-04-14T19:33:58.544Z,6.00
2019-04-14T19:36:27.087Z,5.90
2019-04-14T19:38:55.524Z,5.90
2019-04-14T19:41:23.976Z,5.80
2019-04-14T19:43:52.759Z,5.80
2019-04-14T19:46:21.586Z,5.90
2019-04-14T19:48:50.371Z,5.80
2019-04-14T19:51:19.534Z,5.80
2019-04-14T19:53:48.271Z,5.80
2019-04-14T19:56:17.072Z,5.70
2019-04-14T19:58:45.872Z,5.70
2019-04-14T20:01:14.675Z,5.70
2019-04-14T20:03:43.110Z,5.60
2019-04-14T20:06:11.648Z,5.60
2019-04-14T20:08:40.358Z,5.60
2019-04-14T20:11:08.882Z,5.50
2019-04-14T20:13:39.397Z,5.50
2019-04-14T20:16:25.847Z,5.40
2019-04-14T20:19:09.861Z,5.50
2019-04-14T20:21:47.008Z,5.50
2019-04-14T20:24:17.875Z,5.40
2019-04-14T20:27:04.056Z,5.40
2019-04-14T20:29:34.143Z,5.40
2019-04-14T20:32:07.578Z,5.30
2019-04-14T20:34:36.014Z,5.30
2019-04-14T20:37:04.871Z,5.30
2019-04-14T20:39:33.778Z,5.30
2019-04-14T20:42:02.587Z,5.20
2019-04-14T20:44:31.376Z,5.30
2019-04-14T20:47:00.287Z,5.20
2019-04-14T20:49:28.845Z,5.20
2019-04-14T20:51:57.784Z,5.20
2019-04-14T20:54:26.220Z,5.10
2019-04-14T20:56:54.653Z,5.20
2019-04-14T20:59:23.943Z,5.10
2019-04-14T21:02:00.368Z,5.10
2019-04-14T21:04:33.207Z,5.10
2019-04-14T21:07:12.950Z,5.10
2019-04-14T21:09:43.359Z,5.10
2019-04-14T21:12:16.399Z,5.10
2019-04-14T21:14:52.250Z,5.00
2019-04-14T21:17:28.326Z,5.00
2019-04-14T21:20:08.386Z,4.90
2019-04-14T21:22:38.806Z,4.90
2019-04-14T21:25:15.397Z,4.90
2019-04-14T21:27:45.760Z,4.80
2019-04-14T21:30:25.044Z,4.60
2019-04-14T21:32:55.424Z,4.50
2019-04-14T21:35:43.884Z,4.40
2019-04-14T21:38:23.255Z,4.40
2019-04-14T21:40:59.716Z,4.20
2019-04-14T21:43:28.521Z,4.10
2019-04-14T21:45:57.264Z,4.00
2019-04-14T21:48:26.038Z,4.10
2019-04-14T21:50:54.467Z,4.10
2019-04-14T21:53:22.933Z,4.20
2019-04-14T21:55:51.712Z,4.20
2019-04-14T21:58:38.635Z,4.10
2019-04-14T22:01:37.227Z,4.20
2019-04-14T22:04:07.576Z,4.10
2019-04-14T22:06:37.685Z,4.00
2019-04-14T22:09:08.906Z,4.10
2019-04-14T22:11:39.718Z,4.00
2019-04-14T22:14:08.519Z,4.10
2019-04-14T22:16:37.262Z,4.10
2019-04-14T22:19:06.031Z,4.10
2019-04-14T22:21:34.826Z,4.10
2019-04-14T22:24:03.346Z,4.10
2019-04-14T22:26:31.787Z,4.10
2019-04-14T22:29:02.437Z,4.10
2019-04-14T22:31:31.061Z,4.10
2019-04-14T22:33:59.499Z,4.10
2019-04-14T22:36:28.102Z,4.00
2019-04-14T22:38:56.902Z,3.90
2019-04-14T22:41:25.472Z,4.00
2019-04-14T22:43:53.911Z,4.10
2019-04-14T22:46:22.524Z,4.20
2019-04-14T22:48:51.075Z,4.20
2019-04-14T22:51:19.842Z,4.20
2019-04-14T22:53:48.475Z,4.20
2019-04-14T22:56:17.243Z,4.20
2019-04-14T22:58:46.036Z,4.20
2019-04-14T23:01:25.271Z,4.10
2019-04-14T23:04:04.624Z,4.10
2019-04-14T23:06:37.723Z,4.10
2019-04-14T23:09:23.163Z,4.10
2019-04-14T23:12:08.622Z,4.10
2019-04-14T23:14:38.700Z,4.00
2019-04-14T23:17:11.855Z,4.00
2019-04-14T23:19:48.036Z,3.90
2019-04-14T23:22:18.464Z,3.90
2019-04-14T23:24:48.650Z,3.70
2019-04-14T23:27:17.508Z,3.50
2019-04-14T23:29:46.315Z,3.50
2019-04-14T23:32:15.108Z,3.50
2019-04-14T23:34:43.912Z,3.50
2019-04-14T23:37:12.720Z,3.60
2019-04-14T23:39:41.538Z,3.60
2019-04-14T23:42:10.032Z,3.60
2019-04-14T23:44:38.899Z,3.50
2019-04-14T23:47:07.720Z,3.30
2019-04-14T23:49:36.322Z,3.10
2019-04-14T23:52:05.231Z,3.00
2019-04-14T23:54:34.011Z,2.80
2019-04-14T23:57:05.866Z,2.70
2019-04-14T23:59:32.982Z,2.60
